Time;durP1;ratioP1;P1;durP2;ratioP2;P2;SDS_P1;SDS_P2;PMS_P1;PMS_P2;Temp;Humidity;BMP_temperature;BMP_pressure;BME280_temperature;BME280_humidity;BME280_pressure;Samples;Min_cycle;Max_cycle;Signal;HPM_P1;HPM_P2
2023/12/16 15:37:38;;;;;;;12.50;4.53;;;;;;;2.16;100.00;101532.97;4882772;29;20052;-85
2023/12/16 15:40:09;;;;;;;11.75;4.95;;;;;;;2.05;100.00;101538.13;5064868;23;20253;-85
2023/12/16 15:42:47;;;;;;;16.00;5.00;;;;;;;1.95;100.00;101537.28;4907564;29;20104;-84
2023/12/16 15:45:16;;;;;;;8.13;4.38;;;;;;;1.88;100.00;101544.50;4914429;29;20055;-84
2023/12/16 15:47:45;;;;;;;10.32;4.93;;;;;;;1.89;100.00;101553.91;4916870;29;20056;-86
2023/12/16 15:50:14;;;;;;;7.60;4.80;;;;;;;1.98;100.00;101557.97;4911784;29;20068;-85
2023/12/16 15:52:47;;;;;;;14.75;6.65;;;;;;;2.05;100.00;101558.53;4917280;29;20052;-85
2023/12/16 15:55:16;;;;;;;45.85;21.83;;;;;;;2.07;100.00;101544.22;4909557;29;20091;-86
2023/12/16 15:57:45;;;;;;;49.63;22.45;;;;;;;2.06;100.00;101541.56;4915062;29;20072;-87
2023/12/16 16:00:23;;;;;;;61.42;33.40;;;;;;;2.01;100.00;101542.88;4917919;29;20056;-85
2023/12/16 16:05:28;;;;;;;20.75;11.65;;;;;;;1.96;100.00;101539.09;5052478;23;20087;-85
2023/12/16 16:08:03;;;;;;;13.85;6.47;;;;;;;1.97;100.00;101544.31;4933935;29;20063;-85
2023/12/16 16:10:32;;;;;;;9.23;5.55;;;;;;;2.03;100.00;101556.66;4940428;29;20054;-82
2023/12/16 16:13:03;;;;;;;14.95;6.47;;;;;;;2.05;100.00;101552.56;4939448;29;20418;-82
2023/12/16 16:15:32;;;;;;;20.80;7.03;;;;;;;2.13;100.00;101554.03;4934940;29;20135;-85
2023/12/16 16:18:06;;;;;;;17.42;6.38;;;;;;;2.14;100.00;101555.81;4934013;29;20059;-85
2023/12/16 16:20:36;;;;;;;15.65;7.35;;;;;;;2.25;100.00;101562.63;4934261;29;20135;-84
2023/12/16 16:23:10;;;;;;;9.75;4.85;;;;;;;2.29;100.00;101562.09;4931158;29;20070;-86
2023/12/16 16:25:49;;;;;;;;;;;;;;;;;;;;;
2023/12/16 16:28:19;;;;;;;14.00;5.78;;;;;;;2.37;100.00;101571.97;4927899;29;20494;-86
2023/12/16 17:13:35;;;;;;;;;;;;;;;;;;;;;
2023/12/16 17:16:07;;;;;;;17.90;6.35;;;;;;;2.84;100.00;101620.63;4930791;29;20056;-86
2023/12/16 17:18:39;;;;;;;9.88;6.03;;;;;;;2.87;100.00;101614.09;4930824;29;20099;-86
2023/12/16 17:23:46;;;;;;;9.40;5.93;;;;;;;2.97;100.00;101613.09;4758787;26;20055;-85
2023/12/16 17:26:17;;;;;;;12.73;6.13;;;;;;;2.99;100.00;101601.31;4936271;29;20069;-86
2023/12/16 17:28:51;;;;;;;12.07;6.50;;;;;;;2.99;100.00;101603.88;4932491;29;20123;-87
2023/12/16 17:31:36;;;;;;;10.85;5.60;;;;;;;3.00;100.00;101609.88;4926919;29;20619;-87
2023/12/16 17:34:06;;;;;;;13.93;5.68;;;;;;;3.06;100.00;101608.66;4924174;29;20058;-87
2023/12/16 17:36:42;;;;;;;15.73;6.13;;;;;;;3.12;100.00;101609.09;4924991;29;20052;-86
2023/12/16 17:39:12;;;;;;;17.00;7.45;;;;;;;3.23;100.00;101611.53;4919685;29;20070;-85
2023/12/16 17:41:42;;;;;;;11.60;5.85;;;;;;;3.31;100.00;101607.88;4926238;29;20077;-87
2023/12/16 17:44:23;;;;;;;12.55;5.85;;;;;;;3.40;100.00;101610.22;4922562;29;20055;-86
2023/12/16 17:46:56;;;;;;;11.55;5.43;;;;;;;3.45;100.00;101602.09;4921492;29;20047;-87
2023/12/16 17:52:07;;;;;;;11.30;5.78;;;;;;;3.51;100.00;101619.56;5048849;23;20544;-87
2023/12/16 17:59:45;;;;;;;9.88;5.85;;;;;;;3.62;100.00;101628.91;5720169;23;20430;-83
2023/12/16 18:02:18;;;;;;;15.32;7.30;;;;;;;3.70;100.00;101625.19;4924350;29;20044;-86
2023/12/16 18:04:50;;;;;;;;;;;;;;;3.69;100.00;101630.22;4938854;29;20123;-89
2023/12/16 18:07:22;;;;;;;13.38;6.30;;;;;;;3.65;100.00;101633.34;4938445;29;19950;-86
2023/12/16 18:09:54;;;;;;;14.70;5.95;;;;;;;3.63;100.00;101633.22;4954033;29;20051;-89
2023/12/16 18:12:23;;;;;;;12.87;6.00;;;;;;;3.66;100.00;101635.09;4944514;29;20093;-86
2023/12/16 18:17:33;;;;;;;15.13;6.25;;;;;;;3.78;100.00;101636.00;5333319;23;20884;-86
2023/12/16 18:20:02;;;;;;;17.92;7.60;;;;;;;3.80;100.00;101639.53;4935751;29;20326;-85
2023/12/16 18:22:32;;;;;;;15.30;6.47;;;;;;;3.82;100.00;101647.31;4942805;29;20043;-86
2023/12/16 18:25:05;;;;;;;13.32;5.25;;;;;;;3.76;100.00;101637.56;4940733;29;20052;-86
2023/12/16 18:27:38;;;;;;;7.25;4.40;;;;;;;3.78;100.00;101636.00;4941202;29;20055;-87
2023/12/16 18:30:08;;;;;;;11.93;5.53;;;;;;;3.84;100.00;101646.66;4939123;29;20055;-88
2023/12/16 18:32:51;;;;;;;13.13;5.05;;;;;;;3.85;100.00;101638.22;4938859;29;20047;-87
2023/12/16 19:16:48;;;;;;;8.30;3.28;;;;;;;6.65;97.33;101564.72;5639038;23;20123;-85
2023/12/16 19:19:23;;;;;;;7.32;4.03;;;;;;;6.85;95.24;101554.66;4932206;29;20056;-85
2023/12/16 19:21:52;;;;;;;6.43;4.28;;;;;;;7.09;92.53;101560.34;4941488;29;20048;-85
2023/12/16 19:24:21;;;;;;;6.30;3.65;;;;;;;7.43;95.69;101569.94;4937416;29;20079;-83
2023/12/16 19:26:50;;;;;;;6.13;3.80;;;;;;;7.81;92.27;101578.84;4937291;29;20103;-87
2023/12/16 19:29:28;;;;;;;7.50;4.07;;;;;;;8.14;91.43;101580.66;4934464;29;20051;-84
2023/12/16 19:32:03;;;;;;;6.72;4.28;;;;;;;8.45;90.20;101590.00;4935014;29;20160;-84
2023/12/16 19:34:43;;;;;;;;;;;;;;;;;;;;;
2023/12/16 19:37:12;;;;;;;6.95;4.90;;;;;;;8.99;85.22;101567.78;4932910;29;20139;-84
2023/12/16 19:39:41;;;;;;;7.07;4.03;;;;;;;9.18;83.77;101569.56;4935971;29;20047;-85
2023/12/16 19:42:11;;;;;;;5.43;3.72;;;;;;;9.37;81.57;101561.00;4921996;29;20127;-85
2023/12/16 19:44:46;;;;;;;5.97;4.22;;;;;;;9.52;75.35;101555.66;4936684;29;20064;-84
2023/12/16 19:47:17;;;;;;;7.95;3.97;;;;;;;9.47;76.55;101571.78;4930159;29;20115;-84
2023/12/16 19:49:46;;;;;;;6.63;4.57;;;;;;;9.42;77.93;101580.19;4931899;29;20078;-84
2023/12/16 19:52:15;;;;;;;5.93;3.75;;;;;;;9.52;79.70;101578.91;4925512;29;20079;-84
2023/12/16 19:54:50;;;;;;;5.20;3.50;;;;;;;9.62;79.20;101583.72;4935931;29;20134;-84
2023/12/16 19:57:18;;;;;;;5.35;3.88;;;;;;;9.71;78.90;101566.84;4928343;29;20059;-83
2023/12/16 19:59:48;;;;;;;7.70;4.07;;;;;;;9.81;78.17;101572.50;4929201;29;20305;-88
2023/12/16 20:02:30;;;;;;;;;;;;;;;;;;;;;
2023/12/16 20:04:59;;;;;;;6.13;3.83;;;;;;;9.96;74.84;101568.84;4936083;29;20051;-84
2023/12/16 20:07:28;;;;;;;8.93;5.00;;;;;;;10.01;75.18;101557.00;4936153;29;20060;-85
2023/12/16 20:09:57;;;;;;;6.20;4.03;;;;;;;10.11;76.23;101542.81;4936704;29;20083;-84
2023/12/16 20:12:35;;;;;;;6.40;4.20;;;;;;;10.22;75.42;101531.22;4936600;29;20075;-84
2023/12/16 20:15:04;;;;;;;7.35;4.20;;;;;;;10.26;72.75;101518.50;4931788;29;20055;-85
2023/12/16 20:17:35;;;;;;;7.50;4.32;;;;;;;10.19;72.98;101515.56;4937670;29;20087;-85
2023/12/16 20:20:08;;;;;;;7.03;4.40;;;;;;;10.11;73.39;101522.09;4928965;29;20087;-84
2023/12/16 20:22:37;;;;;;;10.32;5.60;;;;;;;10.14;74.08;101523.09;4931706;29;20062;-84
2023/12/16 20:25:07;;;;;;;7.85;5.18;;;;;;;10.06;75.01;101527.09;4938449;29;20059;-87
2023/12/16 20:27:37;;;;;;;9.73;5.13;;;;;;;10.09;74.74;101544.44;4938244;29;20048;-86
2023/12/16 20:30:19;;;;;;;7.80;5.05;;;;;;;10.03;71.85;101543.34;4938408;29;20620;-86
2023/12/16 20:32:50;;;;;;;6.82;5.28;;;;;;;9.88;71.83;101544.38;4937971;29;20055;-86
2023/12/16 20:55:41;;;;;;;13.00;7.68;;;;;;;9.17;81.50;101510.13;5584682;23;20102;-85
2023/12/16 20:58:13;;;;;;;11.15;8.07;;;;;;;9.14;82.42;101494.47;4936072;29;20063;-87
2023/12/16 21:11:05;;;;;;;11.00;7.38;;;;;;;9.26;81.75;101500.22;5659982;23;20057;-85
2023/12/16 21:13:35;;;;;;;11.43;6.10;;;;;;;9.22;81.88;101494.00;4902988;29;20611;-87
2023/12/16 21:34:13;;;;;;;13.05;6.93;;;;;;;9.33;84.49;101480.72;5090683;23;20056;-85
2023/12/16 21:36:42;;;;;;;11.52;7.13;;;;;;;9.44;82.43;101488.16;4914907;29;20058;-85
2023/12/16 21:39:12;;;;;;;10.15;6.68;;;;;;;9.63;83.36;101494.16;4915385;29;20172;-84
2023/12/16 21:41:42;;;;;;;13.32;7.90;;;;;;;9.80;81.84;101487.13;4914635;29;20139;-84
2023/12/16 21:44:11;;;;;;;14.25;7.80;;;;;;;9.85;78.64;101470.16;4925751;29;20106;-86
2023/12/16 21:46:41;;;;;;;9.55;6.40;;;;;;;9.93;80.30;101475.66;4919535;29;20048;-86
2023/12/16 22:10:11;;;;;;;10.05;5.65;;;;;;;10.41;78.30;101486.34;4951344;23;20466;-82
2023/12/16 22:12:41;;;;;;;10.63;6.43;;;;;;;10.47;76.89;101491.78;4936793;29;20052;-83
2023/12/16 22:15:19;;;;;;;7.95;5.45;;;;;;;10.49;76.50;101474.63;4931711;29;20079;-84
2023/12/16 22:17:47;;;;;;;9.20;5.90;;;;;;;10.50;75.21;101484.16;4927165;29;20428;-85
2023/12/16 22:20:17;;;;;;;10.32;5.22;;;;;;;10.49;75.62;101472.03;4906706;29;20147;-86
2023/12/16 22:22:46;;;;;;;10.20;5.70;;;;;;;10.54;76.65;101475.69;4915616;29;20059;-87
2023/12/16 22:25:24;;;;;;;9.50;5.85;;;;;;;10.57;75.89;101462.88;4916259;29;20061;-86
2023/12/16 22:27:53;;;;;;;9.65;5.78;;;;;;;10.60;75.93;101452.63;4929229;29;20081;-85
2023/12/16 22:30:24;;;;;;;10.60;6.30;;;;;;;10.57;75.32;101457.69;4913723;29;20127;-85
2023/12/16 22:32:53;;;;;;;11.52;6.32;;;;;;;10.61;74.74;101464.78;4912678;29;20044;-85
2023/12/16 22:35:29;;;;;;;10.82;6.53;;;;;;;10.61;74.09;101463.91;4912153;29;20061;-87
2023/12/16 22:37:58;;;;;;;11.50;6.22;;;;;;;10.59;75.01;101471.59;4905498;29;20974;-87
